Time;durP1;ratioP1;P1;durP2;ratioP2;P2;SDS_P1;SDS_P2;PMS_P1;PMS_P2;Temp;Humidity;BMP_temperature;BMP_pressure;BME280_temperature;BME280_humidity;BME280_pressure;Samples;Min_cycle;Max_cycle;Signal;HPM_P1;HPM_P2
2022/01/29 00:00:54;;;;;;;25.45;11.25;;;6.80;99.90;;;;;;5009068;28;20167;-86
2022/01/29 00:03:20;;;;;;;26.45;11.50;;;6.80;99.90;;;;;;5009865;28;20045;-86
2022/01/29 00:05:46;;;;;;;27.45;11.23;;;;;;;;;;5005370;28;20055;-86
2022/01/29 00:08:12;;;;;;;22.40;10.30;;;6.80;99.90;;;;;;5023450;28;20090;-86
2022/01/29 00:10:38;;;;;;;26.65;11.02;;;6.80;99.90;;;;;;5017796;28;20453;-86
2022/01/29 00:13:04;;;;;;;25.40;10.90;;;7.20;99.90;;;;;;5018980;28;20029;-86
2022/01/29 00:15:30;;;;;;;21.13;11.18;;;7.90;99.90;;;;;;5021185;28;20505;-86
2022/01/29 00:17:55;;;;;;;22.02;10.98;;;6.80;99.90;;;;;;5002344;28;20041;-85
2022/01/29 00:20:21;;;;;;;25.85;11.15;;;7.60;99.90;;;;;;5009117;28;20033;-86
2022/01/29 00:22:47;;;;;;;26.48;10.85;;;8.30;99.90;;;;;;5019970;28;20041;-86
2022/01/29 00:25:13;;;;;;;23.83;11.25;;;7.00;99.90;;;;;;5010318;28;20564;-86
2022/01/29 00:27:40;;;;;;;24.10;10.40;;;7.70;99.90;;;;;;5030742;28;20127;-86
2022/01/29 00:30:09;;;;;;;24.35;11.68;;;6.90;99.90;;;;;;5007308;28;20103;-86
2022/01/29 00:32:36;;;;;;;27.35;11.90;;;6.90;99.90;;;;;;5007646;28;20099;-87
2022/01/29 00:35:02;;;;;;;24.33;10.90;;;7.00;99.90;;;;;;5036727;28;20077;-86
2022/01/29 00:37:28;;;;;;;24.20;11.60;;;6.90;99.90;;;;;;5037524;28;20474;-86
2022/01/29 00:39:54;;;;;;;22.80;11.52;;;6.90;99.90;;;;;;5010906;28;20041;-86
2022/01/29 00:42:20;;;;;;;26.30;12.13;;;8.00;99.90;;;;;;5037893;28;20050;-86
2022/01/29 00:44:46;;;;;;;25.23;11.77;;;6.90;99.90;;;;;;5019164;28;20037;-86
2022/01/29 00:47:15;;;;;;;26.08;11.80;;;6.80;99.90;;;;;;5040016;28;20036;-86
2022/01/29 00:49:42;;;;;;;22.17;11.40;;;6.90;99.90;;;;;;5019335;28;20102;-85
2022/01/29 00:52:07;;;;;;;24.15;12.75;;;7.60;99.90;;;;;;5020603;28;20111;-86
2022/01/29 00:54:33;;;;;;;25.45;11.95;;;7.60;99.90;;;;;;5027100;28;20045;-86
2022/01/29 00:56:59;;;;;;;24.60;12.63;;;8.00;99.90;;;;;;5022353;28;20037;-86
2022/01/29 00:59:25;;;;;;;26.92;12.20;;;8.00;99.90;;;;;;5002201;28;20060;-84
2022/01/29 01:01:50;;;;;;;25.77;11.60;;;7.20;99.90;;;;;;5034103;28;20068;-85
2022/01/29 01:04:16;;;;;;;24.40;11.75;;;7.30;99.90;;;;;;5009607;28;20187;-86
2022/01/29 01:06:42;;;;;;;19.23;11.05;;;6.80;99.90;;;;;;5033023;28;20037;-85
2022/01/29 01:09:07;;;;;;;23.05;11.55;;;7.60;99.90;;;;;;4996479;28;20038;-86
2022/01/29 01:11:33;;;;;;;22.08;11.77;;;6.80;99.90;;;;;;5011707;28;20044;-86
2022/01/29 01:13:59;;;;;;;22.25;11.88;;;7.50;99.90;;;;;;5009312;28;20037;-86
2022/01/29 01:16:24;;;;;;;26.75;12.13;;;8.30;99.90;;;;;;5012115;28;20041;-86
2022/01/29 01:18:50;;;;;;;24.88;12.75;;;8.10;99.90;;;;;;5032876;28;20037;-86
2022/01/29 01:21:16;;;;;;;25.85;12.50;;;6.90;99.90;;;;;;5018250;28;20076;-85
2022/01/29 01:23:42;;;;;;;25.13;13.02;;;8.20;99.90;;;;;;5021811;28;20041;-86
2022/01/29 01:26:07;;;;;;;31.13;14.70;;;7.70;99.90;;;;;;5018244;28;20033;-86
2022/01/29 01:28:33;;;;;;;33.47;13.82;;;6.90;99.90;;;;;;4999776;28;20144;-86
2022/01/29 01:31:00;;;;;;;25.77;13.02;;;7.70;99.90;;;;;;5027508;28;20036;-86
2022/01/29 01:33:26;;;;;;;23.80;13.13;;;7.30;99.90;;;;;;5004711;28;20601;-86
2022/01/29 01:35:56;;;;;;;28.98;13.80;;;8.50;99.90;;;;;;5027829;28;20037;-86
2022/01/29 01:38:28;;;;;;;28.48;13.02;;;6.90;99.90;;;;;;5027601;28;20041;-86
2022/01/29 01:40:59;;;;;;;28.42;14.13;;;7.00;99.90;;;;;;5010594;28;20402;-87
2022/01/29 01:43:25;;;;;;;28.17;14.23;;;8.40;99.90;;;;;;4997023;28;20583;-86
2022/01/29 01:45:51;;;;;;;26.98;14.05;;;8.30;99.90;;;;;;5014862;28;20041;-86
2022/01/29 01:48:18;;;;;;;28.83;14.02;;;7.00;99.90;;;;;;5037677;28;20061;-85
2022/01/29 01:50:43;;;;;;;23.88;13.82;;;7.00;99.90;;;;;;5019461;28;20067;-86
2022/01/29 01:53:10;;;;;;;28.67;13.82;;;8.30;99.90;;;;;;5020109;28;20038;-86
2022/01/29 01:55:37;;;;;;;30.10;14.35;;;7.10;99.90;;;;;;5009971;28;20041;-86
2022/01/29 01:58:03;;;;;;;29.30;15.27;;;7.30;99.90;;;;;;5042008;28;20037;-86
2022/01/29 02:00:29;;;;;;;32.63;14.38;;;8.10;99.90;;;;;;5008758;28;20048;-86
2022/01/29 02:02:55;;;;;;;30.00;14.70;;;8.60;99.90;;;;;;5010936;28;20075;-87
2022/01/29 02:05:21;;;;;;;29.88;14.57;;;7.80;99.90;;;;;;5021810;28;20041;-86
2022/01/29 02:07:47;;;;;;;27.77;14.40;;;7.20;99.90;;;;;;5038206;28;20036;-87
2022/01/29 02:10:13;;;;;;;30.10;14.35;;;7.30;99.90;;;;;;5020902;28;20580;-87
2022/01/29 02:12:50;;;;;;;30.48;13.73;;;8.30;99.90;;;;;;5029312;28;20044;-86
2022/01/29 02:15:18;;;;;;;31.00;13.88;;;8.00;99.90;;;;;;5032221;28;20037;-87
2022/01/29 02:17:45;;;;;;;39.30;14.27;;;8.50;99.90;;;;;;5038047;28;20068;-85
2022/01/29 02:20:13;;;;;;;30.88;13.25;;;7.70;99.90;;;;;;5008310;28;20049;-86
2022/01/29 02:22:40;;;;;;;29.98;13.10;;;7.30;99.90;;;;;;5025128;28;20124;-86
2022/01/29 02:25:06;;;;;;;22.77;12.13;;;7.40;99.90;;;;;;5029788;28;20045;-86
2022/01/29 02:27:32;;;;;;;29.80;13.45;;;7.40;99.90;;;;;;5042389;28;20052;-86
2022/01/29 02:29:59;;;;;;;30.42;12.50;;;;;;;;;;5012651;28;20394;-86
2022/01/29 02:32:25;;;;;;;24.77;12.75;;;7.40;99.90;;;;;;5015246;28;20049;-86
2022/01/29 02:34:50;;;;;;;30.52;13.02;;;8.20;99.90;;;;;;4996490;28;20053;-86
2022/01/29 02:37:16;;;;;;;27.95;13.25;;;7.50;99.90;;;;;;5015041;28;20040;-87
2022/01/29 02:39:42;;;;;;;24.13;12.95;;;7.50;99.90;;;;;;5012192;28;20037;-87
2022/01/29 02:42:08;;;;;;;28.38;13.00;;;7.50;99.90;;;;;;5022081;28;20482;-86
2022/01/29 02:44:33;;;;;;;31.75;12.88;;;7.50;99.90;;;;;;5001063;28;20048;-86
2022/01/29 02:47:15;;;;;;;28.40;12.48;;;8.20;99.90;;;;;;5027403;28;20033;-87
2022/01/29 02:49:41;;;;;;;31.02;13.57;;;7.80;99.90;;;;;;4998606;28;20095;-86
2022/01/29 02:52:07;;;;;;;28.27;12.75;;;7.80;99.90;;;;;;5042604;28;20037;-86
2022/01/29 02:54:34;;;;;;;30.23;13.43;;;9.00;99.90;;;;;;5008102;28;20038;-87
2022/01/29 02:57:00;;;;;;;31.15;12.68;;;8.80;99.90;;;;;;5005909;28;20453;-86
2022/01/29 02:59:26;;;;;;;28.35;12.75;;;8.20;99.90;;;;;;5036219;28;20124;-86
2022/01/29 03:01:51;;;;;;;26.30;12.70;;;8.30;99.90;;;;;;5006112;28;20116;-87
2022/01/29 03:04:17;;;;;;;25.52;12.18;;;8.30;99.90;;;;;;5006786;28;20041;-87
2022/01/29 03:06:43;;;;;;;27.55;12.02;;;8.00;99.90;;;;;;5014330;28;20071;-87
2022/01/29 03:09:09;;;;;;;28.80;12.60;;;7.60;99.90;;;;;;5000687;28;20062;-87
2022/01/29 03:11:35;;;;;;;31.30;13.38;;;9.40;99.90;;;;;;5008807;28;20064;-85
2022/01/29 03:14:01;;;;;;;27.92;12.90;;;8.10;99.90;;;;;;5004140;28;20585;-86
2022/01/29 03:16:26;;;;;;;23.35;12.60;;;8.40;99.90;;;;;;5010075;28;20092;-86
2022/01/29 03:18:52;;;;;;;30.25;12.77;;;8.50;99.90;;;;;;5007823;28;20041;-86
2022/01/29 03:21:18;;;;;;;24.95;12.70;;;9.00;99.90;;;;;;5028849;28;20154;-87
2022/01/29 03:23:44;;;;;;;23.38;12.23;;;7.70;99.90;;;;;;5009864;28;20038;-87
2022/01/29 03:26:09;;;;;;;26.48;12.65;;;7.70;99.90;;;;;;5011521;28;20037;-86
2022/01/29 03:28:36;;;;;;;22.98;11.98;;;7.70;99.90;;;;;;5021304;28;20045;-86
2022/01/29 03:31:01;;;;;;;25.20;12.43;;;7.90;99.90;;;;;;5028505;28;20037;-86
2022/01/29 03:33:28;;;;;;;28.40;12.38;;;7.70;99.90;;;;;;5012626;28;20134;-85
2022/01/29 03:35:53;;;;;;;22.58;11.52;;;8.40;99.90;;;;;;5010388;28;20398;-87
2022/01/29 03:38:19;;;;;;;25.55;11.32;;;8.70;99.90;;;;;;5012178;28;20163;-86
2022/01/29 03:40:48;;;;;;;23.90;10.98;;;8.60;99.90;;;;;;5024260;28;20068;-87
2022/01/29 03:43:23;;;;;;;21.17;11.05;;;8.90;99.90;;;;;;5004159;28;20049;-87
2022/01/29 03:45:48;;;;;;;27.77;12.05;;;8.20;99.90;;;;;;5038299;28;20425;-87
2022/01/29 03:48:14;;;;;;;26.08;11.63;;;9.10;99.90;;;;;;5013865;28;20032;-87
2022/01/29 03:50:40;;;;;;;25.65;11.85;;;9.60;99.90;;;;;;4996595;28;20665;-87
2022/01/29 03:53:05;;;;;;;23.45;9.95;;;7.90;99.90;;;;;;5011125;28;20583;-87
2022/01/29 03:55:31;;;;;;;28.50;11.30;;;9.40;99.90;;;;;;5033096;28;20052;-87
2022/01/29 03:57:57;;;;;;;21.17;10.65;;;8.00;99.90;;;;;;5019362;28;20120;-86
2022/01/29 04:00:22;;;;;;;25.10;11.55;;;8.00;99.90;;;;;;5009968;28;20040;-87
2022/01/29 04:02:48;;;;;;;27.10;11.68;;;8.20;99.90;;;;;;5009559;28;20033;-86
2022/01/29 04:05:14;;;;;;;21.40;10.18;;;8.60;99.90;;;;;;5023473;28;20052;-86
2022/01/29 04:07:41;;;;;;;21.25;10.68;;;8.00;99.90;;;;;;5007853;28;20143;-87
2022/01/29 04:10:07;;;;;;;25.80;11.18;;;8.20;99.90;;;;;;5036027;28;20065;-87
2022/01/29 04:12:39;;;;;;;22.40;11.48;;;8.00;99.90;;;;;;5023655;28;20037;-87
2022/01/29 04:15:05;;;;;;;23.77;10.82;;;8.40;99.90;;;;;;5023043;28;20076;-87
2022/01/29 04:17:31;;;;;;;23.63;11.10;;;8.00;99.90;;;;;;5012139;28;20090;-87
2022/01/29 04:19:57;;;;;;;26.55;12.45;;;8.10;99.90;;;;;;5027364;28;20034;-88
2022/01/29 04:22:22;;;;;;;22.83;11.20;;;8.10;99.90;;;;;;5041607;28;20040;-88
2022/01/29 04:24:48;;;;;;;21.80;10.65;;;8.40;99.90;;;;;;5018476;28;20064;-87
2022/01/29 04:27:18;;;;;;;24.25;11.25;;;9.90;99.90;;;;;;5019260;28;20045;-86
2022/01/29 04:29:59;;;;;;;23.13;11.45;;;8.10;99.90;;;;;;5023517;28;20041;-86
2022/01/29 04:32:55;;;;;;;26.13;11.77;;;8.20;99.90;;;;;;5025977;28;20033;-86
2022/01/29 04:35:16;;;;;;;23.10;10.43;;;8.90;99.90;;;;;;5004407;28;20053;-86
2022/01/29 04:37:42;;;;;;;26.88;11.63;;;9.40;99.90;;;;;;4997754;28;20123;-87
2022/01/29 04:40:09;;;;;;;21.77;11.60;;;8.20;99.90;;;;;;4991443;28;20034;-86
2022/01/29 04:42:34;;;;;;;20.75;11.27;;;8.20;99.90;;;;;;5004617;28;20049;-86
2022/01/29 04:45:00;;;;;;;19.92;10.88;;;8.20;99.90;;;;;;4995534;28;20494;-87
2022/01/29 04:47:26;;;;;;;19.45;11.07;;;8.20;99.90;;;;;;5015880;28;20034;-86
2022/01/29 04:49:52;;;;;;;23.13;11.70;;;8.20;99.90;;;;;;5007333;28;20037;-86
2022/01/29 04:52:17;;;;;;;24.00;11.57;;;9.30;99.90;;;;;;4993694;28;20512;-86
2022/01/29 04:54:43;;;;;;;22.77;11.45;;;8.20;99.90;;;;;;4990285;28;20049;-87
2022/01/29 04:57:09;;;;;;;20.15;11.30;;;8.30;99.90;;;;;;4983365;28;21409;-87
2022/01/29 04:59:34;;;;;;;23.85;11.63;;;8.30;99.90;;;;;;4990057;28;20045;-86
2022/01/29 05:02:00;;;;;;;21.80;11.40;;;8.80;99.90;;;;;;4997657;28;20038;-87
2022/01/29 05:04:26;;;;;;;21.88;10.90;;;8.30;99.90;;;;;;4998740;28;20528;-87
2022/01/29 05:06:51;;;;;;;25.42;11.88;;;8.30;99.90;;;;;;4999245;28;20107;-86
2022/01/29 05:09:17;;;;;;;22.38;10.73;;;8.30;99.90;;;;;;4985499;28;20026;-86
2022/01/29 05:11:46;;;;;;;20.30;11.07;;;8.30;99.90;;;;;;4989896;28;20149;-87
2022/01/29 05:14:21;;;;;;;21.08;10.68;;;8.30;99.90;;;;;;4997016;28;20064;-87
2022/01/29 05:27:44;;;;;;;24.90;11.43;;;8.50;99.90;;;;;;4998837;28;20052;-86
2022/01/29 05:30:10;;;;;;;20.23;11.48;;;8.60;99.90;;;;;;4990915;28;20034;-86
2022/01/29 05:32:35;;;;;;;19.58;11.23;;;8.50;99.90;;;;;;5006204;28;20042;-86
2022/01/29 05:35:01;;;;;;;20.50;11.15;;;8.50;99.90;;;;;;5007855;28;20053;-84
2022/01/29 05:37:27;;;;;;;22.90;10.85;;;8.50;99.90;;;;;;5003013;28;20043;-87
2022/01/29 05:39:53;;;;;;;20.52;11.60;;;8.50;99.90;;;;;;4999497;28;20037;-86
2022/01/29 05:42:18;;;;;;;22.10;11.52;;;9.60;99.90;;;;;;5009671;28;20037;-87
2022/01/29 05:44:44;;;;;;;22.05;10.65;;;8.50;99.90;;;;;;5018230;28;20464;-88
2022/01/29 05:47:10;;;;;;;19.83;11.20;;;8.80;99.90;;;;;;5013979;28;20056;-86
2022/01/29 05:49:35;;;;;;;20.33;10.80;;;8.50;99.90;;;;;;5034187;28;20045;-87
2022/01/29 05:52:01;;;;;;;18.65;11.57;;;8.50;99.90;;;;;;5021031;28;20124;-87
2022/01/29 05:54:27;;;;;;;22.92;12.25;;;8.50;99.90;;;;;;5019802;28;20037;-87
2022/01/29 05:56:53;;;;;;;20.85;11.07;;;9.70;99.90;;;;;;4988407;28;20033;-87
2022/01/29 05:59:18;;;;;;;23.67;11.82;;;8.50;99.90;;;;;;5037168;28;20076;-87
2022/01/29 06:01:44;;;;;;;20.08;11.50;;;8.50;99.90;;;;;;4992115;28;20038;-87
2022/01/29 06:04:09;;;;;;;24.23;12.27;;;9.10;99.90;;;;;;5001284;28;20118;-86
2022/01/29 06:06:35;;;;;;;22.42;12.05;;;9.50;99.90;;;;;;4994332;28;20075;-86
2022/01/29 06:09:04;;;;;;;22.75;11.60;;;8.50;99.90;;;;;;5007736;28;20233;-87
2022/01/29 06:11:32;;;;;;;18.98;11.13;;;8.60;99.90;;;;;;5025810;28;20071;-87
2022/01/29 06:13:57;;;;;;;23.52;12.13;;;8.50;99.90;;;;;;5026370;28;20102;-87
2022/01/29 06:16:23;;;;;;;21.20;11.15;;;8.50;99.90;;;;;;5011306;28;20128;-86
2022/01/29 06:18:49;;;;;;;24.02;11.45;;;8.50;99.90;;;;;;5003855;28;20045;-87
2022/01/29 06:21:15;;;;;;;23.88;11.18;;;8.50;99.90;;;;;;5007165;28;20045;-87
2022/01/29 06:23:42;;;;;;;20.35;10.88;;;8.50;99.90;;;;;;5019702;28;20041;-86
2022/01/29 06:26:09;;;;;;;23.60;12.48;;;8.50;99.90;;;;;;4997920;28;20122;-87
2022/01/29 06:28:35;;;;;;;20.08;11.35;;;8.50;99.90;;;;;;5028953;28;20495;-86
2022/01/29 06:31:02;;;;;;;22.17;11.27;;;8.50;99.90;;;;;;5016296;28;20428;-87
2022/01/29 06:33:28;;;;;;;22.88;11.20;;;9.40;99.90;;;;;;5020348;28;20057;-88
2022/01/29 06:35:54;;;;;;;19.83;10.75;;;8.80;99.90;;;;;;5028842;28;20078;-86
2022/01/29 06:38:21;;;;;;;20.33;10.73;;;8.50;99.90;;;;;;5010574;28;20041;-87
2022/01/29 06:40:47;;;;;;;23.33;10.65;;;9.30;99.90;;;;;;5041614;28;20121;-86
2022/01/29 06:43:13;;;;;;;24.15;11.35;;;8.50;99.90;;;;;;5018890;28;20447;-87
2022/01/29 06:45:40;;;;;;;17.55;10.50;;;8.50;99.90;;;;;;5022099;28;20037;-86
2022/01/29 06:48:06;;;;;;;19.63;10.35;;;9.40;99.90;;;;;;5022359;28;20028;-87
2022/01/29 06:50:33;;;;;;;24.38;11.00;;;8.50;99.90;;;;;;5044621;28;20032;-87
2022/01/29 06:52:58;;;;;;;19.60;10.82;;;8.60;99.90;;;;;;5005038;28;20498;-85
2022/01/29 06:55:24;;;;;;;18.42;9.45;;;8.50;99.90;;;;;;5036705;28;20044;-86
2022/01/29 06:57:50;;;;;;;19.67;10.48;;;8.60;99.90;;;;;;5038514;28;20053;-86
2022/01/29 07:00:16;;;;;;;18.33;10.48;;;8.60;99.90;;;;;;5009318;28;20090;-86
2022/01/29 07:02:42;;;;;;;19.23;10.63;;;8.60;99.90;;;;;;5035972;28;20087;-85
2022/01/29 07:05:10;;;;;;;20.38;10.10;;;8.50;99.90;;;;;;5018129;28;20040;-86
2022/01/29 07:07:35;;;;;;;22.10;10.88;;;8.50;99.90;;;;;;5030238;28;20038;-86
2022/01/29 07:10:02;;;;;;;18.40;10.48;;;9.40;99.90;;;;;;5025490;28;20532;-86
2022/01/29 07:12:28;;;;;;;21.77;10.75;;;8.60;99.90;;;;;;5021163;28;20044;-87
2022/01/29 07:14:53;;;;;;;20.92;11.05;;;9.70;99.90;;;;;;5005777;28;20413;-87
2022/01/29 07:17:22;;;;;;;22.73;10.70;;;9.10;99.90;;;;;;4995998;28;20040;-87
2022/01/29 07:19:52;;;;;;;19.67;10.65;;;8.60;99.90;;;;;;5023373;28;20041;-86
2022/01/29 07:22:19;;;;;;;21.58;11.02;;;8.60;99.90;;;;;;5001692;28;20045;-86
2022/01/29 07:24:46;;;;;;;17.70;9.63;;;8.60;99.90;;;;;;5053204;28;20103;-87
2022/01/29 07:27:13;;;;;;;18.20;9.65;;;8.70;99.90;;;;;;5043080;28;20041;-87
2022/01/29 07:29:39;;;;;;;18.98;10.57;;;8.50;99.90;;;;;;5003458;28;20076;-87
2022/01/29 07:32:05;;;;;;;21.60;10.77;;;8.80;99.90;;;;;;5015109;28;20068;-87
2022/01/29 07:34:32;;;;;;;18.98;10.15;;;8.50;99.90;;;;;;5037303;28;20088;-87
2022/01/29 07:36:58;;;;;;;18.17;9.45;;;9.70;99.90;;;;;;5028688;28;20079;-87
2022/01/29 07:39:26;;;;;;;20.52;9.90;;;8.50;99.90;;;;;;5008227;28;20037;-87
2022/01/29 07:41:53;;;;;;;19.65;10.02;;;8.80;99.90;;;;;;5039325;28;20085;-86
2022/01/29 07:44:20;;;;;;;18.08;9.63;;;9.10;99.90;;;;;;5011748;28;20455;-87
2022/01/29 07:46:45;;;;;;;16.50;9.45;;;8.80;99.90;;;;;;5040439;28;20068;-87
2022/01/29 07:49:11;;;;;;;17.73;10.30;;;8.50;99.90;;;;;;5017175;28;20153;-87
2022/01/29 07:51:39;;;;;;;18.75;9.13;;;8.50;99.90;;;;;;5042620;28;20486;-86
2022/01/29 07:54:05;;;;;;;18.42;9.60;;;9.40;99.90;;;;;;5009221;28;20033;-87
2022/01/29 07:56:31;;;;;;;17.05;8.85;;;8.60;99.90;;;;;;5006672;28;20045;-86
2022/01/29 07:58:57;;;;;;;18.15;9.63;;;9.00;99.90;;;;;;5026256;28;20447;-87
2022/01/29 08:01:23;;;;;;;15.98;8.75;;;8.60;99.90;;;;;;5003288;28;20075;-88
2022/01/29 08:03:50;;;;;;;17.77;9.45;;;9.40;99.90;;;;;;5003871;28;20045;-88
2022/01/29 08:06:18;;;;;;;17.15;9.00;;;8.50;99.90;;;;;;5007192;28;20410;-87
2022/01/29 08:08:44;;;;;;;17.85;8.88;;;8.70;99.90;;;;;;5041849;28;20029;-86
2022/01/29 08:11:12;;;;;;;16.75;8.55;;;9.50;99.90;;;;;;5009338;28;20029;-86
2022/01/29 08:13:38;;;;;;;17.33;8.30;;;8.60;99.90;;;;;;5018456;28;20434;-87
2022/01/29 08:16:04;;;;;;;16.20;8.30;;;8.50;99.90;;;;;;5026123;28;20098;-86
2022/01/29 08:18:30;;;;;;;15.73;8.60;;;8.60;99.90;;;;;;5035676;28;20098;-88
2022/01/29 08:20:56;;;;;;;16.77;8.25;;;9.40;99.90;;;;;;5027414;28;20041;-87
2022/01/29 08:23:21;;;;;;;16.65;8.50;;;8.70;99.90;;;;;;5018131;28;20072;-88
2022/01/29 08:25:48;;;;;;;20.05;7.90;;;8.60;99.90;;;;;;5026732;28;20125;-87
2022/01/29 08:28:14;;;;;;;18.17;8.48;;;8.60;99.90;;;;;;5009450;28;20376;-87
2022/01/29 08:30:40;;;;;;;17.02;8.30;;;8.60;99.90;;;;;;5018197;28;20029;-87
2022/01/29 08:33:06;;;;;;;20.38;8.25;;;8.70;99.90;;;;;;5022898;28;20060;-87
2022/01/29 08:35:33;;;;;;;16.38;7.75;;;8.70;99.90;;;;;;5019867;28;20049;-87
2022/01/29 08:37:59;;;;;;;15.50;7.78;;;8.70;99.90;;;;;;5020609;28;20040;-85
2022/01/29 08:40:25;;;;;;;17.48;8.23;;;9.70;99.90;;;;;;5031994;28;20530;-86
2022/01/29 08:42:51;;;;;;;16.42;7.65;;;8.70;99.90;;;;;;5018139;28;20174;-85
2022/01/29 08:45:17;;;;;;;17.58;6.95;;;9.10;99.90;;;;;;5004223;28;20045;-85
2022/01/29 08:47:43;;;;;;;14.02;7.20;;;9.40;99.90;;;;;;5007069;28;20103;-86
2022/01/29 08:50:11;;;;;;;15.82;6.80;;;8.70;99.90;;;;;;5045483;28;20398;-85
2022/01/29 08:52:37;;;;;;;12.68;6.78;;;8.70;99.90;;;;;;5003888;28;20037;-86
2022/01/29 08:55:04;;;;;;;15.38;6.57;;;9.30;99.90;;;;;;4995236;28;20037;-86
2022/01/29 08:57:30;;;;;;;14.32;6.00;;;8.70;99.90;;;;;;5018157;28;20049;-86
2022/01/29 08:59:56;;;;;;;15.57;6.72;;;9.50;99.90;;;;;;5026340;28;20095;-86
2022/01/29 09:02:23;;;;;;;13.10;6.40;;;8.80;99.90;;;;;;5001895;28;20473;-87
2022/01/29 09:04:49;;;;;;;16.42;6.88;;;8.80;99.90;;;;;;5036091;28;20037;-87
2022/01/29 09:07:15;;;;;;;13.95;6.30;;;9.50;99.90;;;;;;5032985;28;20041;-87
2022/01/29 09:09:44;;;;;;;13.65;6.05;;;8.90;99.90;;;;;;5018873;28;20033;-86
2022/01/29 09:12:11;;;;;;;13.57;5.85;;;8.90;99.90;;;;;;5017723;28;20034;-87
2022/01/29 09:14:37;;;;;;;13.68;5.63;;;;;;;;;;5008504;28;20374;-86
2022/01/29 09:17:03;;;;;;;15.40;6.20;;;9.00;99.90;;;;;;5004948;28;20037;-86
2022/01/29 09:19:29;;;;;;;12.45;4.82;;;9.00;99.90;;;;;;5002655;28;20509;-86
2022/01/29 09:21:54;;;;;;;17.42;5.95;;;9.50;99.90;;;;;;5020724;28;20091;-87
2022/01/29 09:24:20;;;;;;;11.77;5.20;;;9.00;99.90;;;;;;5014249;28;20185;-87
2022/01/29 09:26:46;;;;;;;12.52;5.35;;;9.10;99.90;;;;;;4990029;28;20052;-87
2022/01/29 09:29:11;;;;;;;11.00;4.50;;;9.10;99.90;;;;;;5026559;28;20037;-87
2022/01/29 09:31:37;;;;;;;11.65;4.85;;;9.10;99.90;;;;;;5015382;28;20668;-87
2022/01/29 09:34:03;;;;;;;12.68;4.70;;;9.20;99.90;;;;;;5014095;28;20060;-87
2022/01/29 09:36:29;;;;;;;11.63;4.40;;;9.10;99.90;;;;;;5003136;28;20088;-87
2022/01/29 09:38:55;;;;;;;12.60;4.75;;;9.10;99.90;;;;;;5036787;28;20069;-87
2022/01/29 09:41:24;;;;;;;11.52;4.28;;;9.10;99.90;;;;;;5034059;28;20337;-86
2022/01/29 09:43:52;;;;;;;16.20;5.03;;;9.10;99.90;;;;;;5018733;28;20034;-86
2022/01/29 09:46:18;;;;;;;12.68;4.20;;;9.50;99.90;;;;;;5011299;28;20029;-87
2022/01/29 09:48:44;;;;;;;11.73;4.25;;;9.20;99.90;;;;;;5020044;28;20036;-87
2022/01/29 09:51:14;;;;;;;16.00;4.82;;;9.20;99.90;;;;;;5006601;28;20040;-87
2022/01/29 09:53:42;;;;;;;12.27;4.50;;;10.00;99.90;;;;;;5030836;28;20048;-87
2022/01/29 09:56:09;;;;;;;13.98;4.63;;;9.20;99.90;;;;;;5033114;28;20037;-86
2022/01/29 09:58:34;;;;;;;13.38;4.65;;;10.20;99.90;;;;;;5020246;28;20041;-86
2022/01/29 10:01:00;;;;;;;13.13;4.35;;;9.50;99.90;;;;;;4991983;28;20418;-87
2022/01/29 10:03:26;;;;;;;13.50;4.65;;;9.90;99.90;;;;;;5019465;28;20030;-87
2022/01/29 10:05:53;;;;;;;14.10;4.40;;;9.20;99.90;;;;;;5019409;28;20034;-87
2022/01/29 10:08:21;;;;;;;13.00;3.70;;;9.30;99.90;;;;;;5009907;28;20553;-86
2022/01/29 10:10:52;;;;;;;12.20;4.00;;;9.30;99.90;;;;;;5031910;28;20479;-86
2022/01/29 10:13:27;;;;;;;10.43;3.45;;;9.30;99.90;;;;;;5025915;28;20048;-86
2022/01/29 10:16:23;;;;;;;10.55;3.50;;;9.40;99.90;;;;;;5038745;28;20041;-87
2022/01/29 10:19:13;;;;;;;10.77;3.60;;;9.40;99.90;;;;;;5025799;28;20049;-87
2022/01/29 10:21:42;;;;;;;12.13;3.85;;;9.40;99.90;;;;;;5022404;28;20038;-86
2022/01/29 10:24:10;;;;;;;12.27;3.28;;;9.40;99.90;;;;;;5031753;28;20112;-86
2022/01/29 10:26:40;;;;;;;11.23;3.20;;;9.40;99.90;;;;;;5042470;28;20051;-86
2022/01/29 10:29:18;;;;;;;10.25;3.10;;;9.40;99.90;;;;;;5024150;28;20029;-86
2022/01/29 10:31:48;;;;;;;8.98;3.30;;;9.40;99.90;;;;;;5040139;28;20454;-85
2022/01/29 10:34:25;;;;;;;11.63;3.65;;;9.40;99.90;;;;;;5024180;28;20280;-86
2022/01/29 10:37:14;;;;;;;11.05;3.22;;;10.20;99.90;;;;;;5020834;28;20041;-86
2022/01/29 10:39:52;;;;;;;12.88;3.47;;;9.50;99.90;;;;;;5036063;28;20449;-87
2022/01/29 10:42:23;;;;;;;11.35;3.13;;;9.50;99.90;;;;;;5021696;28;20620;-86
2022/01/29 10:44:54;;;;;;;9.88;3.13;;;9.60;99.90;;;;;;5038913;28;20099;-87
2022/01/29 10:47:20;;;;;;;10.48;3.42;;;9.70;99.90;;;;;;5022023;28;20037;-87
2022/01/29 10:49:55;;;;;;;10.20;3.00;;;9.60;99.90;;;;;;5013964;28;20094;-87
2022/01/29 10:52:35;;;;;;;10.45;2.58;;;9.70;99.90;;;;;;5028397;28;20393;-86
2022/01/29 10:55:06;;;;;;;10.73;2.70;;;9.70;99.90;;;;;;5015130;28;20103;-86
2022/01/29 10:57:41;;;;;;;10.45;2.50;;;9.80;99.90;;;;;;5022552;28;20044;-86
2022/01/29 11:00:31;;;;;;;10.75;2.50;;;9.80;99.90;;;;;;5029765;28;20110;-87
2022/01/29 11:03:00;;;;;;;10.57;2.70;;;9.80;99.90;;;;;;5031946;28;20126;-86
2022/01/29 11:05:30;;;;;;;9.65;2.22;;;9.90;99.90;;;;;;5024451;28;20172;-86
2022/01/29 11:08:00;;;;;;;9.68;2.65;;;9.90;99.90;;;;;;5017696;28;20401;-85
2022/01/29 11:10:26;;;;;;;14.32;3.00;;;9.90;99.90;;;;;;5044337;28;20048;-87
2022/01/29 11:12:52;;;;;;;9.77;2.60;;;9.90;99.90;;;;;;5021213;28;20040;-86
2022/01/29 11:15:20;;;;;;;8.55;2.30;;;9.90;99.90;;;;;;5025555;28;20069;-86
2022/01/29 11:17:48;;;;;;;9.60;2.40;;;9.90;99.90;;;;;;5021715;28;20548;-87
2022/01/29 11:20:14;;;;;;;9.95;2.50;;;10.00;99.90;;;;;;5035855;28;20168;-86
2022/01/29 11:22:44;;;;;;;8.57;2.65;;;10.20;99.90;;;;;;5027361;28;20533;-87
2022/01/29 11:25:22;;;;;;;12.10;2.60;;;10.00;99.90;;;;;;5037841;28;20042;-88
2022/01/29 11:27:47;;;;;;;10.32;2.30;;;10.00;99.90;;;;;;5038205;28;20045;-87
2022/01/29 11:30:15;;;;;;;8.93;2.35;;;10.50;99.90;;;;;;5008205;28;20083;-87
2022/01/29 11:32:53;;;;;;;11.95;2.95;;;10.60;99.90;;;;;;5021905;28;20385;-87
2022/01/29 11:35:25;;;;;;;10.18;2.63;;;10.10;99.90;;;;;;5036124;28;20080;-86
2022/01/29 11:38:04;;;;;;;10.63;2.67;;;10.10;99.90;;;;;;5035544;28;20045;-87
2022/01/29 11:40:34;;;;;;;10.43;2.67;;;10.80;99.90;;;;;;5020687;28;20041;-87
2022/01/29 11:43:09;;;;;;;9.18;2.28;;;10.10;99.90;;;;;;5022583;28;20060;-86
2022/01/29 11:45:48;;;;;;;11.82;2.75;;;10.10;99.90;;;;;;5021589;28;20256;-87
2022/01/29 11:48:30;;;;;;;8.93;2.25;;;10.10;99.90;;;;;;5037305;28;20045;-86
2022/01/29 11:50:58;;;;;;;12.60;2.63;;;10.10;99.90;;;;;;5037067;28;20549;-87
2022/01/29 11:53:25;;;;;;;10.63;2.67;;;10.10;99.90;;;;;;5027673;28;20033;-87
2022/01/29 11:55:54;;;;;;;8.98;2.63;;;10.10;99.90;;;;;;5033802;28;20116;-86
2022/01/29 11:58:28;;;;;;;8.70;2.30;;;10.30;99.90;;;;;;5035254;28;20070;-86
2022/01/29 12:00:59;;;;;;;9.70;2.63;;;10.20;99.90;;;;;;5039407;28;20406;-86
2022/01/29 12:03:38;;;;;;;8.80;2.33;;;10.40;99.90;;;;;;5025694;28;20036;-87
2022/01/29 12:06:29;;;;;;;12.40;2.42;;;10.20;99.90;;;;;;5027765;28;20568;-85
2022/01/29 12:09:07;;;;;;;9.60;2.20;;;10.30;99.90;;;;;;5041402;28;20030;-86
2022/01/29 12:11:39;;;;;;;11.38;2.50;;;10.40;99.90;;;;;;5018176;28;20059;-86
2022/01/29 12:14:13;;;;;;;8.02;2.00;;;10.40;99.90;;;;;;5039806;28;20041;-87
2022/01/29 12:16:54;;;;;;;10.30;2.53;;;10.40;99.90;;;;;;5036929;28;20064;-90
2022/01/29 12:19:41;;;;;;;9.45;2.55;;;10.40;99.90;;;;;;5017567;28;20044;-93
2022/01/29 12:22:23;;;;;;;12.52;2.70;;;10.60;99.90;;;;;;5043315;28;20044;-87
2022/01/29 12:24:51;;;;;;;10.23;2.20;;;10.50;99.90;;;;;;5038466;28;20041;-88
2022/01/29 12:27:17;;;;;;;7.90;2.10;;;10.50;99.90;;;;;;5029402;28;20029;-88
2022/01/29 12:29:44;;;;;;;10.60;2.55;;;10.50;99.90;;;;;;5019231;28;20033;-88
2022/01/29 12:32:10;;;;;;;10.27;2.28;;;10.50;99.90;;;;;;5037324;28;20124;-87
2022/01/29 12:34:37;;;;;;;9.00;1.98;;;10.50;99.90;;;;;;5021575;28;20056;-88
2022/01/29 12:37:19;;;;;;;12.13;2.20;;;10.60;99.90;;;;;;5016134;28;20041;-90
2022/01/29 12:39:49;;;;;;;9.82;2.00;;;10.60;99.90;;;;;;5022200;28;20047;-91
2022/01/29 12:44:54;;;;;;;11.35;2.55;;;10.70;99.90;;;;;;5038540;28;20098;-90
2022/01/29 12:47:33;;;;;;;8.57;2.10;;;10.80;99.90;;;;;;5037746;28;20123;-88
2022/01/29 12:49:59;;;;;;;9.48;2.10;;;10.70;99.90;;;;;;5020998;28;20109;-91
2022/01/29 12:52:26;;;;;;;12.15;2.30;;;10.70;99.90;;;;;;5019330;28;20569;-91
2022/01/29 12:55:00;;;;;;;11.85;2.47;;;10.70;99.90;;;;;;5001741;28;20455;-87
2022/01/29 12:57:40;;;;;;;11.40;2.67;;;10.80;99.90;;;;;;5039129;28;20037;-89